Time;durP1;ratioP1;P1;durP2;ratioP2;P2;SDS_P1;SDS_P2;PMS_P1;PMS_P2;Temp;Humidity;BMP_temperature;BMP_pressure;BME280_temperature;BME280_humidity;BME280_pressure;Samples;Min_cycle;Max_cycle;Signal;HPM_P1;HPM_P2
2023/01/27 00:01:15;;;;;;;12.43;6.40;;;;;;;;;;4951946;29;20055;-83
2023/01/27 00:03:42;;;;;;;7.53;5.88;;;;;;;;;;4964187;29;20071;-83
2023/01/27 00:06:10;;;;;;;11.15;6.03;;;;;;;;;;4961688;29;20058;-83
2023/01/27 00:08:38;;;;;;;14.57;6.20;;;;;;;;;;4954092;29;20054;-82
2023/01/27 00:13:52;;;;;;;8.30;5.55;;;;;;;;;;4938457;29;20098;-82
2023/01/27 00:16:19;;;;;;;9.60;6.30;;;;;;;;;;4937405;29;20058;-80
2023/01/27 00:18:47;;;;;;;9.55;6.43;;;;;;;;;;4946475;29;20055;-81
2023/01/27 00:26:57;;;;;;;26.95;24.88;;;;;;;;;;4951602;29;20122;-82
2023/01/27 00:29:25;;;;;;;7.82;5.53;;;;;;;;;;4929351;29;20130;-82
2023/01/27 00:34:40;;;;;;;9.65;6.15;;;;;;;;;;4951059;29;20277;-81
2023/01/27 00:37:07;;;;;;;9.77;5.82;;;;;;;;;;4943977;29;20051;-83
2023/01/27 00:39:35;;;;;;;9.55;6.18;;;;;;;;;;4933481;29;20063;-81
2023/01/27 00:42:03;;;;;;;8.70;5.47;;;;;;;;;;4937388;29;20072;-81
2023/01/27 00:44:30;;;;;;;11.07;6.15;;;;;;;;;;4933937;29;20039;-82
2023/01/27 00:46:58;;;;;;;10.52;6.72;;;;;;;;;;4940788;29;20216;-81
2023/01/27 00:49:25;;;;;;;10.75;6.00;;;;;;;;;;4938488;29;20035;-82
2023/01/27 00:51:53;;;;;;;9.40;6.05;;;;;;;;;;4960398;29;20608;-82
2023/01/27 00:54:21;;;;;;;10.60;6.50;;;;;;;;;;4966488;29;20054;-82
2023/01/27 00:56:49;;;;;;;9.98;5.90;;;;;;;;;;4966992;29;20067;-83
2023/01/27 00:59:16;;;;;;;10.85;6.20;;;;;;;;;;4938333;29;20142;-81
2023/01/27 01:01:44;;;;;;;10.70;5.53;;;;;;;;;;4931231;29;20509;-81
2023/01/27 01:04:12;;;;;;;10.27;6.35;;;;;;;;;;4931265;29;20039;-81
2023/01/27 01:06:39;;;;;;;10.68;5.55;;;;;;;;;;4930426;29;20071;-82
2023/01/27 01:09:07;;;;;;;10.85;6.22;;;;;;;;;;4941827;28;20448;-82
2023/01/27 01:11:34;;;;;;;12.48;6.03;;;;;;;;;;4931394;29;20118;-81
2023/01/27 01:14:02;;;;;;;10.90;6.20;;;;;;;;;;4944885;29;20054;-83
2023/01/27 01:16:29;;;;;;;11.32;6.25;;;;;;;;;;4932550;29;20063;-81
2023/01/27 01:18:57;;;;;;;9.32;5.60;;;;;;;;;;4946256;29;20043;-80
2023/01/27 01:21:25;;;;;;;31.67;20.80;;;;;;;;;;5001654;23;20117;-79
2023/01/27 01:23:52;;;;;;;8.82;6.30;;;;;;;;;;4986610;28;20126;-79
2023/01/27 01:26:21;;;;;;;7.28;5.03;;;;;;;;;;4988699;28;20042;-79
2023/01/27 01:28:48;;;;;;;8.75;6.13;;;;;;;;;;4980054;28;20050;-79
2023/01/27 01:31:19;;;;;;;9.15;5.88;;;;;;;;;;4975283;28;20542;-79
2023/01/27 01:33:47;;;;;;;8.40;5.18;;;;;;;;;;4977866;28;20046;-79
2023/01/27 01:36:16;;;;;;;9.05;6.10;;;;;;;;;;4988540;28;20050;-79
2023/01/27 01:38:43;;;;;;;9.95;6.53;;;;;;;;;;4970976;28;20042;-80
2023/01/27 01:41:17;;;;;;;9.98;6.05;;;;;;;;;;4977685;28;20053;-80
2023/01/27 01:43:46;;;;;;;9.20;5.93;;;;;;;;;;4990424;28;20038;-80
2023/01/27 01:46:13;;;;;;;8.50;5.80;;;;;;;;;;4992279;28;20039;-80
2023/01/27 01:48:42;;;;;;;8.85;5.50;;;;;;;;;;4973480;28;20047;-79
2023/01/27 01:51:15;;;;;;;9.00;6.22;;;;;;;;;;4977850;28;20043;-79
2023/01/27 01:53:45;;;;;;;7.72;5.22;;;;;;;;;;4974190;28;20066;-79
2023/01/27 01:56:16;;;;;;;11.23;6.40;;;;;;;;;;4991802;28;20137;-80
2023/01/27 01:58:44;;;;;;;9.63;6.97;;;;;;;;;;4990459;28;20053;-80
2023/01/27 02:01:12;;;;;;;11.57;6.30;;;;;;;;;;4987189;28;20436;-79
2023/01/27 02:03:42;;;;;;;8.13;6.25;;;;;;;;;;4988591;28;20066;-80
2023/01/27 02:06:10;;;;;;;12.85;11.30;;;;;;;;;;4987169;28;20109;-80
2023/01/27 02:08:39;;;;;;;9.55;5.47;;;;;;;;;;4977113;28;20069;-79
2023/01/27 02:11:07;;;;;;;8.77;5.90;;;;;;;;;;4975630;28;20439;-80
2023/01/27 02:13:40;;;;;;;10.32;5.88;;;;;;;;;;4990343;28;20065;-79
2023/01/27 02:16:09;;;;;;;10.45;6.60;;;;;;;;;;4991303;28;20089;-80
2023/01/27 02:18:38;;;;;;;9.32;5.95;;;;;;;;;;4999832;28;20046;-80
2023/01/27 02:21:06;;;;;;;10.27;5.90;;;;;;;;;;5001039;28;21116;-80
2023/01/27 02:23:36;;;;;;;7.90;5.47;;;;;;;;;;4989255;28;20085;-79
2023/01/27 02:26:15;;;;;;;8.70;5.18;;;;;;;;;;4975289;28;20046;-79
2023/01/27 02:28:43;;;;;;;10.38;5.78;;;;;;;;;;4985654;28;20133;-79
2023/01/27 02:31:10;;;;;;;7.45;5.03;;;;;;;;;;4973769;28;20556;-80
2023/01/27 02:33:38;;;;;;;8.77;5.65;;;;;;;;;;4970821;28;20447;-80
2023/01/27 02:36:08;;;;;;;8.30;5.22;;;;;;;;;;4970824;28;20459;-80
2023/01/27 02:38:39;;;;;;;9.70;5.72;;;;;;;;;;4973856;28;20050;-80
2023/01/27 02:41:27;;;;;;;8.98;5.32;;;;;;;;;;4972831;28;20038;-80
2023/01/27 02:43:54;;;;;;;9.15;5.18;;;;;;;;;;4970316;28;20673;-79
2023/01/27 02:46:22;;;;;;;10.02;5.95;;;;;;;;;;4987544;28;20121;-79
2023/01/27 02:48:50;;;;;;;8.13;5.13;;;;;;;;;;4988468;28;20122;-80
2023/01/27 02:51:18;;;;;;;9.80;5.70;;;;;;;;;;4972318;28;20129;-80
2023/01/27 02:53:46;;;;;;;7.80;5.15;;;;;;;;;;4970880;28;20081;-80
2023/01/27 02:56:13;;;;;;;7.40;5.15;;;;;;;;;;4970616;28;20142;-80
2023/01/27 02:58:42;;;;;;;9.98;5.43;;;;;;;;;;4971017;28;20049;-79
2023/01/27 03:01:15;;;;;;;10.85;5.22;;;;;;;;;;4972299;28;20066;-80
2023/01/27 03:03:45;;;;;;;8.95;5.45;;;;;;;;;;4986813;28;20085;-79
2023/01/27 03:06:18;;;;;;;9.25;5.57;;;;;;;;;;4970617;28;20061;-79
2023/01/27 03:08:45;;;;;;;8.07;5.13;;;;;;;;;;4988549;28;20055;-80
2023/01/27 03:12:18;;;;;;;10.70;5.65;;;;;;;;;;4968457;28;20050;-80
2023/01/27 03:14:03;;;;;;;8.50;5.25;;;;;;;;;;4969888;28;20066;-80
2023/01/27 03:19:16;;;;;;;9.05;5.20;;;;;;;;;;4969813;28;20052;-80
2023/01/27 03:21:44;;;;;;;11.52;6.53;;;;;;;;;;4971283;28;20066;-80
2023/01/27 03:24:11;;;;;;;7.55;5.25;;;;;;;;;;4986928;28;20137;-80
2023/01/27 03:26:39;;;;;;;10.20;6.15;;;;;;;;;;4985485;28;20073;-80
2023/01/27 03:31:55;;;;;;;9.98;5.45;;;;;;;;;;4969764;28;20054;-80
2023/01/27 03:34:23;;;;;;;10.85;6.22;;;;;;;;;;4969788;28;20129;-80
2023/01/27 03:48:04;;;;;;;7.97;5.72;;;;;;;;;;4978123;28;20122;-80
2023/01/27 03:50:41;;;;;;;9.57;6.20;;;;;;;;;;4986121;28;20046;-80
2023/01/27 03:53:10;;;;;;;10.60;6.13;;;;;;;;;;4987591;28;20104;-79
2023/01/27 03:55:37;;;;;;;12.23;6.15;;;;;;;;;;4986334;28;20064;-80
2023/01/27 03:58:17;;;;;;;12.35;5.88;;;;;;;;;;4989880;28;20119;-80
2023/01/27 04:00:46;;;;;;;10.85;6.78;;;;;;;;;;4987499;28;20399;-80
2023/01/27 04:08:57;;;;;;;9.40;5.70;;;;;;;;;;4984748;28;20051;-80
2023/01/27 04:14:13;;;;;;;10.68;6.38;;;;;;;;;;4985205;28;20050;-80
2023/01/27 04:16:40;;;;;;;10.98;6.40;;;;;;;;;;4986458;28;20358;-80
2023/01/27 04:19:09;;;;;;;10.68;6.57;;;;;;;;;;4987653;28;20053;-80
2023/01/27 04:21:36;;;;;;;9.85;6.15;;;;;;;;;;4970595;28;20046;-80
2023/01/27 04:24:07;;;;;;;11.27;6.45;;;;;;;;;;4985767;28;20054;-80
2023/01/27 04:26:35;;;;;;;12.20;6.50;;;;;;;;;;4986846;28;20105;-79
2023/01/27 04:29:03;;;;;;;11.48;6.68;;;;;;;;;;4987986;28;20416;-80
2023/01/27 04:31:31;;;;;;;12.15;6.30;;;;;;;;;;4978150;28;20489;-80
2023/01/27 04:33:59;;;;;;;10.48;6.18;;;;;;;;;;4988473;28;20046;-80
2023/01/27 04:36:26;;;;;;;9.73;5.97;;;;;;;;;;4986649;28;20065;-80
2023/01/27 04:38:53;;;;;;;11.52;6.65;;;;;;;;;;4985919;28;20135;-80
2023/01/27 04:41:21;;;;;;;10.55;6.55;;;;;;;;;;4967379;28;20540;-80
2023/01/27 04:43:48;;;;;;;11.80;6.70;;;;;;;;;;4987169;28;20422;-80
2023/01/27 04:46:16;;;;;;;11.32;10.23;;;;;;;;;;4986619;28;20050;-79
2023/01/27 04:48:43;;;;;;;9.50;6.97;;;;;;;;;;4985518;28;20049;-80
2023/01/27 04:51:10;;;;;;;11.30;6.97;;;;;;;;;;4984271;28;20046;-80
2023/01/27 04:53:38;;;;;;;12.43;6.80;;;;;;;;;;4983063;28;20058;-80
2023/01/27 04:56:06;;;;;;;13.30;7.45;;;;;;;;;;4982299;28;20046;-79
2023/01/27 04:58:34;;;;;;;11.40;6.75;;;;;;;;;;4983885;28;20046;-80
2023/01/27 05:01:01;;;;;;;10.05;6.50;;;;;;;;;;4982163;28;20085;-79
2023/01/27 05:03:28;;;;;;;16.33;8.98;;;;;;;;;;4989035;28;20042;-79
2023/01/27 05:05:56;;;;;;;10.90;6.95;;;;;;;;;;4979376;28;20058;-79
2023/01/27 05:08:23;;;;;;;12.35;6.82;;;;;;;;;;4997832;28;20046;-80
2023/01/27 05:10:51;;;;;;;12.43;6.82;;;;;;;;;;4991747;28;20415;-79
2023/01/27 05:13:19;;;;;;;12.82;7.95;;;;;;;;;;4986131;28;20069;-79
2023/01/27 05:15:46;;;;;;;12.63;7.03;;;;;;;;;;4985313;28;20056;-79
2023/01/27 05:18:14;;;;;;;13.35;7.47;;;;;;;;;;4987237;28;20050;-79
2023/01/27 05:20:42;;;;;;;15.48;12.93;;;;;;;;;;4987213;28;20056;-79
2023/01/27 05:25:55;;;;;;;12.88;7.18;;;;;;;;;;4987420;28;20052;-79
2023/01/27 05:28:22;;;;;;;14.52;7.43;;;;;;;;;;4981398;28;20488;-79
2023/01/27 05:30:50;;;;;;;12.95;7.07;;;;;;;;;;4987636;28;20042;-79
2023/01/27 05:33:19;;;;;;;12.48;7.10;;;;;;;;;;4972275;28;20512;-79
2023/01/27 05:35:46;;;;;;;14.38;7.38;;;;;;;;;;4983525;28;20061;-79
2023/01/27 05:38:14;;;;;;;12.32;6.70;;;;;;;;;;4983747;28;20050;-78
2023/01/27 05:40:41;;;;;;;12.13;7.07;;;;;;;;;;4985021;28;20038;-79
2023/01/27 05:43:09;;;;;;;11.70;7.03;;;;;;;;;;4981922;28;20046;-79
2023/01/27 05:45:36;;;;;;;12.20;7.35;;;;;;;;;;4982227;28;20050;-81
2023/01/27 05:48:04;;;;;;;12.90;6.82;;;;;;;;;;4979512;28;20509;-79
2023/01/27 05:50:31;;;;;;;10.73;6.78;;;;;;;;;;4981977;28;20048;-79
2023/01/27 05:52:58;;;;;;;11.60;7.30;;;;;;;;;;4980994;28;20416;-78
2023/01/27 05:55:26;;;;;;;29.83;22.70;;;;;;;;;;4984363;28;20504;-79
2023/01/27 05:57:54;;;;;;;11.77;6.88;;;;;;;;;;4979781;28;20058;-79
2023/01/27 06:00:21;;;;;;;13.75;7.45;;;;;;;;;;4983715;28;20097;-79
2023/01/27 06:02:48;;;;;;;12.85;7.47;;;;;;;;;;4989623;28;20069;-77
2023/01/27 06:05:16;;;;;;;14.82;7.68;;;;;;;;;;4989461;28;20558;-78
2023/01/27 06:07:43;;;;;;;15.27;6.90;;;;;;;;;;4986479;28;20098;-78
2023/01/27 06:10:11;;;;;;;13.52;8.07;;;;;;;;;;4986129;28;20057;-77
2023/01/27 06:12:38;;;;;;;14.95;8.23;;;;;;;;;;4995961;28;20051;-78
2023/01/27 06:15:06;;;;;;;16.77;13.70;;;;;;;;;;4994795;28;20129;-78
2023/01/27 06:17:33;;;;;;;14.10;8.05;;;;;;;;;;4987174;28;20054;-78
2023/01/27 06:20:01;;;;;;;11.85;7.07;;;;;;;;;;4983539;28;20394;-78
2023/01/27 06:22:28;;;;;;;11.75;7.53;;;;;;;;;;4987821;28;20124;-77
2023/01/27 06:24:55;;;;;;;17.08;12.55;;;;;;;;;;4983069;28;20042;-78
2023/01/27 06:27:23;;;;;;;13.38;7.38;;;;;;;;;;4982161;28;20105;-78
2023/01/27 06:29:50;;;;;;;11.07;7.47;;;;;;;;;;4992418;28;20145;-78
2023/01/27 06:32:18;;;;;;;13.38;7.20;;;;;;;;;;4989754;28;20062;-78
2023/01/27 06:34:45;;;;;;;16.50;8.25;;;;;;;;;;4981620;28;20491;-79
2023/01/27 06:37:12;;;;;;;14.40;9.02;;;;;;;;;;4994532;28;20038;-78
2023/01/27 06:39:40;;;;;;;13.98;8.00;;;;;;;;;;4989788;28;20405;-80
2023/01/27 06:42:08;;;;;;;13.20;7.18;;;;;;;;;;4991348;28;20054;-79
2023/01/27 06:44:35;;;;;;;13.10;7.97;;;;;;;;;;4988606;28;20720;-79
2023/01/27 06:47:03;;;;;;;14.73;8.10;;;;;;;;;;4990127;28;20057;-79
2023/01/27 06:49:30;;;;;;;14.88;8.00;;;;;;;;;;4986237;28;20042;-79
2023/01/27 06:51:58;;;;;;;19.17;15.38;;;;;;;;;;4984024;28;20054;-78
2023/01/27 06:54:25;;;;;;;21.10;8.77;;;;;;;;;;4970973;28;20049;-79
2023/01/27 06:56:52;;;;;;;14.35;10.57;;;;;;;;;;4985902;28;20049;-79
2023/01/27 06:59:20;;;;;;;12.52;7.60;;;;;;;;;;4987934;28;20049;-78
2023/01/27 07:01:50;;;;;;;13.27;8.02;;;;;;;;;;4982798;28;20038;-79
2023/01/27 07:04:19;;;;;;;;;;;;;;;;;;4971913;28;20128;-78
2023/01/27 07:06:49;;;;;;;14.70;12.20;;;;;;;;;;4986339;28;19929;-78
2023/01/27 07:09:16;;;;;;;14.23;7.35;;;;;;;;;;4988675;28;20066;-79
2023/01/27 07:11:46;;;;;;;12.95;7.53;;;;;;;;;;4982082;28;20054;-78
2023/01/27 07:14:14;;;;;;;10.40;7.10;;;;;;;;;;4991007;28;20201;-78
2023/01/27 07:16:41;;;;;;;13.48;7.75;;;;;;;;;;4990419;28;20062;-78
2023/01/27 07:19:09;;;;;;;16.10;8.23;;;;;;;;;;4984099;28;20058;-78
2023/01/27 07:24:31;;;;;;;14.52;7.85;;;;;;;;;;4997990;28;20042;-81
2023/01/27 07:26:59;;;;;;;15.45;9.10;;;;;;;;;;4994925;28;20106;-81
2023/01/27 07:29:27;;;;;;;16.25;8.32;;;;;;;;;;4994893;28;20052;-81
2023/01/27 07:32:01;;;;;;;14.48;8.45;;;;;;;;;;4998933;28;20111;-82
2023/01/27 07:34:29;;;;;;;13.73;8.18;;;;;;;;;;4995041;28;20050;-81
2023/01/27 07:36:56;;;;;;;18.05;9.23;;;;;;;;;;4993835;28;20086;-81
2023/01/27 07:39:25;;;;;;;15.40;8.60;;;;;;;;;;4981697;28;20141;-82
2023/01/27 07:41:53;;;;;;;27.65;12.68;;;;;;;;;;4976592;28;20119;-82
2023/01/27 07:44:21;;;;;;;59.17;23.80;;;;;;;;;;4988524;28;20050;-83
2023/01/27 07:46:48;;;;;;;32.08;13.45;;;;;;;;;;4978805;28;20120;-83
2023/01/27 07:49:16;;;;;;;23.92;11.25;;;;;;;;;;4977430;28;20057;-82
2023/01/27 07:51:43;;;;;;;14.77;8.40;;;;;;;;;;4975463;28;20094;-83
2023/01/27 07:54:11;;;;;;;25.05;10.75;;;;;;;;;;4982712;28;20125;-83
2023/01/27 07:56:39;;;;;;;46.25;27.00;;;;;;;;;;4991299;28;20050;-82
2023/01/27 07:59:09;;;;;;;43.85;19.20;;;;;;;;;;4991645;28;20061;-83
2023/01/27 08:01:37;;;;;;;29.30;14.68;;;;;;;;;;5006243;28;20026;-84
2023/01/27 08:04:04;;;;;;;22.52;12.88;;;;;;;;;;5007705;28;20046;-83
2023/01/27 08:06:32;;;;;;;22.85;10.95;;;;;;;;;;5001581;28;20070;-83
2023/01/27 08:09:00;;;;;;;17.98;8.98;;;;;;;;;;4994646;28;20093;-83
2023/01/27 08:11:27;;;;;;;31.30;27.98;;;;;;;;;;4988560;28;20058;-83
2023/01/27 08:13:55;;;;;;;19.45;10.13;;;;;;;;;;4994157;28;20042;-83
2023/01/27 08:16:25;;;;;;;16.38;8.88;;;;;;;;;;4988967;28;20069;-82
2023/01/27 08:18:53;;;;;;;28.00;19.80;;;;;;;;;;4995685;28;20050;-83
2023/01/27 08:21:21;;;;;;;22.50;13.23;;;;;;;;;;4993115;28;20542;-83
2023/01/27 08:23:48;;;;;;;16.45;10.02;;;;;;;;;;4988886;28;20148;-84
2023/01/27 08:26:16;;;;;;;16.40;9.90;;;;;;;;;;4988663;28;20414;-83
2023/01/27 08:28:43;;;;;;;14.38;8.75;;;;;;;;;;4992539;28;20404;-82
2023/01/27 08:31:12;;;;;;;13.50;8.13;;;;;;;;;;4994005;28;20043;-83
2023/01/27 08:33:40;;;;;;;15.98;8.85;;;;;;;;;;4997286;28;20129;-83
2023/01/27 08:36:10;;;;;;;12.40;7.65;;;;;;;;;;4994832;28;20081;-83
2023/01/27 08:38:38;;;;;;;11.52;7.90;;;;;;;;;;4990849;28;20086;-83
2023/01/27 08:41:10;;;;;;;18.67;14.15;;;;;;;;;;5006901;28;20330;-83
2023/01/27 08:43:38;;;;;;;13.48;7.88;;;;;;;;;;4986231;28;20436;-83
2023/01/27 08:46:05;;;;;;;11.13;7.18;;;;;;;;;;4991109;28;20093;-86
2023/01/27 08:48:34;;;;;;;39.05;34.72;;;;;;;;;;4984352;28;20505;-83
2023/01/27 08:51:01;;;;;;;18.77;8.52;;;;;;;;;;4988711;28;20078;-83
2023/01/27 08:53:30;;;;;;;14.60;8.90;;;;;;;;;;4983912;28;20108;-82
2023/01/27 08:55:58;;;;;;;15.18;11.38;;;;;;;;;;4991043;28;20397;-82
2023/01/27 08:58:26;;;;;;;11.50;8.05;;;;;;;;;;4988983;28;20065;-83
2023/01/27 09:00:53;;;;;;;17.35;13.63;;;;;;;;;;5003439;28;20420;-84
2023/01/27 09:03:21;;;;;;;14.82;8.63;;;;;;;;;;4990054;28;20046;-83
2023/01/27 09:05:48;;;;;;;18.70;8.50;;;;;;;;;;4988229;28;20563;-83
2023/01/27 09:08:16;;;;;;;17.08;9.27;;;;;;;;;;4993368;28;20101;-83
2023/01/27 09:10:43;;;;;;;17.77;10.05;;;;;;;;;;4991450;28;20046;-83
2023/01/27 09:13:10;;;;;;;19.27;10.02;;;;;;;;;;4986262;28;20039;-83
2023/01/27 09:15:39;;;;;;;14.30;8.27;;;;;;;;;;4988860;28;20081;-82
2023/01/27 09:18:06;;;;;;;12.10;8.25;;;;;;;;;;4986260;28;20065;-81
2023/01/27 09:20:35;;;;;;;13.23;8.30;;;;;;;;;;4987617;28;20066;-82
2023/01/27 09:23:04;;;;;;;39.55;17.90;;;;;;;;;;4998636;28;20224;-81
2023/01/27 09:25:32;;;;;;;17.15;9.65;;;;;;;;;;5003893;28;20069;-84
2023/01/27 09:28:00;;;;;;;17.27;9.75;;;;;;;;;;4982955;28;20051;-82
2023/01/27 09:30:28;;;;;;;11.18;7.15;;;;;;;;;;4981178;28;20042;-83
2023/01/27 09:33:00;;;;;;;15.57;13.45;;;;;;;;;;4977230;28;20074;-83
2023/01/27 09:35:32;;;;;;;12.07;7.70;;;;;;;;;;4985145;28;20070;-83
2023/01/27 09:38:00;;;;;;;14.57;8.32;;;;;;;;;;4987161;28;20046;-83
2023/01/27 09:40:41;;;;;;;13.23;8.10;;;;;;;;;;4983169;28;20077;-83
2023/01/27 09:43:14;;;;;;;9.18;6.90;;;;;;;;;;4986896;28;20046;-83
2023/01/27 09:45:45;;;;;;;14.73;7.93;;;;;;;;;;4991782;28;20057;-83
2023/01/27 09:48:30;;;;;;;11.88;7.63;;;;;;;;;;4992586;28;20508;-83
2023/01/27 09:51:04;;;;;;;9.85;6.57;;;;;;;;;;4994655;28;20062;-83
2023/01/27 09:53:51;;;;;;;11.77;7.57;;;;;;;;;;4976398;28;20461;-83
2023/01/27 09:56:21;;;;;;;11.85;7.47;;;;;;;;;;4970180;28;20069;-83
2023/01/27 09:59:07;;;;;;;11.43;7.55;;;;;;;;;;4970566;28;20055;-83
2023/01/27 10:01:41;;;;;;;14.32;11.63;;;;;;;;;;4981156;28;20118;-84
2023/01/27 10:04:30;;;;;;;14.05;8.32;;;;;;;;;;4997970;28;20149;-82
2023/01/27 10:07:01;;;;;;;10.27;6.90;;;;;;;;;;5004611;28;20062;-84
2023/01/27 10:09:48;;;;;;;13.30;7.93;;;;;;;;;;5006401;28;20159;-83
2023/01/27 10:12:34;;;;;;;11.60;7.38;;;;;;;;;;4994794;28;20046;-83
2023/01/27 10:15:01;;;;;;;20.02;11.52;;;;;;;;;;5003121;28;20034;-84
2023/01/27 10:17:41;;;;;;;13.18;8.32;;;;;;;;;;4989396;28;20043;-83
2023/01/27 10:20:38;;;;;;;18.45;10.98;;;;;;;;;;4982837;28;20068;-82
2023/01/27 10:23:05;;;;;;;23.73;11.85;;;;;;;;;;4907447;28;1179584;-83
2023/01/27 10:25:45;;;;;;;18.52;9.73;;;;;;;;;;4984650;28;20070;-83
2023/01/27 10:28:18;;;;;;;12.32;7.85;;;;;;;;;;4986400;28;20046;-84
2023/01/27 10:31:15;;;;;;;10.85;7.38;;;;;;;;;;4980427;28;20165;-82
2023/01/27 10:33:42;;;;;;;31.67;29.05;;;;;;;;;;4941377;28;20072;-82
2023/01/27 10:36:19;;;;;;;34.55;31.33;;;;;;;;;;4984521;28;20047;-83
2023/01/27 10:38:51;;;;;;;13.23;9.10;;;;;;;;;;4984305;28;20070;-82
2023/01/27 10:41:18;;;;;;;;;;;;;;;;;;4989893;28;20144;-82
2023/01/27 10:43:52;;;;;;;13.45;7.57;;;;;;;;;;5010573;28;20109;-83
2023/01/27 10:46:39;;;;;;;14.73;12.57;;;;;;;;;;5005859;28;20480;-83
2023/01/27 10:49:09;;;;;;;14.43;8.00;;;;;;;;;;4992717;28;20472;-82
2023/01/27 10:51:41;;;;;;;15.43;10.38;;;;;;;;;;4991134;28;20042;-82
2023/01/27 10:54:11;;;;;;;10.03;6.83;;;;;;;;;;4989070;28;20054;-82
2023/01/27 10:56:49;;;;;;;10.85;7.55;;;;;;;;;;4996196;28;20122;-83
2023/01/27 10:59:39;;;;;;;35.78;32.53;;;;;;;;;;4998142;28;20325;-83
2023/01/27 11:02:06;;;;;;;19.70;11.75;;;;;;;;;;4996108;28;20519;-82
2023/01/27 11:04:37;;;;;;;11.98;9.77;;;;;;;;;;4996350;28;20046;-82
2023/01/27 11:07:05;;;;;;;10.98;7.50;;;;;;;;;;4996719;28;20419;-82
2023/01/27 11:09:39;;;;;;;12.27;7.15;;;;;;;;;;4996877;28;20125;-82
2023/01/27 11:12:12;;;;;;;15.20;7.32;;;;;;;;;;4981754;28;20051;-83
2023/01/27 11:14:50;;;;;;;12.35;7.63;;;;;;;;;;4988163;28;20073;-82
2023/01/27 11:17:29;;;;;;;25.33;22.98;;;;;;;;;;4996146;28;20054;-83
2023/01/27 11:20:04;;;;;;;12.88;9.05;;;;;;;;;;4997985;28;20088;-82
2023/01/27 11:22:52;;;;;;;12.07;7.00;;;;;;;;;;5002723;28;20081;-84
2023/01/27 11:25:42;;;;;;;10.35;5.90;;;;;;;;;;5007497;28;20046;-83
2023/01/27 11:28:13;;;;;;;12.23;6.40;;;;;;;;;;4966376;28;20086;-82
2023/01/27 11:30:50;;;;;;;9.88;6.72;;;;;;;;;;5000517;28;20119;-83
2023/01/27 11:33:21;;;;;;;9.80;5.93;;;;;;;;;;4997464;28;20543;-83
2023/01/27 11:35:50;;;;;;;16.23;9.95;;;;;;;;;;4995015;28;20106;-82
2023/01/27 11:38:19;;;;;;;12.20;7.65;;;;;;;;;;4995776;28;20108;-82
2023/01/27 11:40:49;;;;;;;10.68;8.10;;;;;;;;;;5013272;28;20119;-83
2023/01/27 11:43:19;;;;;;;16.15;14.25;;;;;;;;;;4994759;28;20046;-83
2023/01/27 11:45:48;;;;;;;17.25;14.80;;;;;;;;;;4997501;28;20133;-82
2023/01/27 11:48:17;;;;;;;8.73;6.05;;;;;;;;;;4997440;28;20125;-83
2023/01/27 11:50:45;;;;;;;9.45;6.38;;;;;;;;;;5004073;28;20078;-82
2023/01/27 11:53:16;;;;;;;13.93;9.20;;;;;;;;;;4994423;28;20074;-82
2023/01/27 11:55:46;;;;;;;14.75;8.32;;;;;;;;;;4993380;28;20054;-81
2023/01/27 11:58:19;;;;;;;13.98;12.50;;;;;;;;;;4991894;28;20076;-82
2023/01/27 12:00:49;;;;;;;12.90;8.88;;;;;;;;;;4991875;28;20357;-82
2023/01/27 12:03:22;;;;;;;11.82;7.65;;;;;;;;;;4989698;28;20047;-83
2023/01/27 12:05:54;;;;;;;11.45;9.50;;;;;;;;;;4985921;28;20065;-83
2023/01/27 12:08:35;;;;;;;11.77;7.15;;;;;;;;;;4979971;28;20094;-82
2023/01/27 12:11:21;;;;;;;11.30;7.40;;;;;;;;;;4992860;28;20053;-82
2023/01/27 12:13:50;;;;;;;10.07;7.45;;;;;;;;;;4995056;28;20076;-82
2023/01/27 12:16:17;;;;;;;9.88;6.85;;;;;;;;;;4994691;28;20093;-82
2023/01/27 12:18:50;;;;;;;10.82;7.28;;;;;;;;;;4989781;28;20077;-82
2023/01/27 12:21:18;;;;;;;12.32;7.15;;;;;;;;;;5009402;28;20069;-82
2023/01/27 12:23:51;;;;;;;9.50;6.47;;;;;;;;;;4993602;28;20145;-82
2023/01/27 12:26:39;;;;;;;12.50;6.63;;;;;;;;;;4993272;28;20054;-82
2023/01/27 12:29:07;;;;;;;11.30;7.03;;;;;;;;;;4994534;28;20046;-82
2023/01/27 12:31:51;;;;;;;10.38;6.15;;;;;;;;;;4992330;28;20046;-83
2023/01/27 12:34:24;;;;;;;10.10;5.80;;;;;;;;;;4991756;28;20076;-85
2023/01/27 12:36:52;;;;;;;11.45;7.10;;;;;;;;;;4976104;28;20532;-83
2023/01/27 12:39:34;;;;;;;12.43;7.00;;;;;;;;;;4972461;28;20061;-83
2023/01/27 12:42:02;;;;;;;7.13;5.63;;;;;;;;;;4988878;28;20057;-83
2023/01/27 12:44:40;;;;;;;13.93;12.40;;;;;;;;;;5002660;28;20122;-84
2023/01/27 12:47:19;;;;;;;14.57;8.73;;;;;;;;;;5007523;28;20114;-83
2023/01/27 12:49:47;;;;;;;18.17;7.45;;;;;;;;;;4998467;28;20046;-83
2023/01/27 12:52:19;;;;;;;12.23;7.35;;;;;;;;;;4991064;28;20523;-83
2023/01/27 12:54:46;;;;;;;18.02;8.98;;;;;;;;;;4990113;28;20042;-83
2023/01/27 12:57:16;;;;;;;11.85;7.32;;;;;;;;;;4995322;28;20479;-83
2023/01/27 12:59:48;;;;;;;14.55;12.32;;;;;;;;;;4986565;28;20050;-83
2023/01/27 13:02:20;;;;;;;17.10;9.13;;;;;;;;;;4996694;28;20482;-83
2023/01/27 13:04:52;;;;;;;15.90;7.47;;;;;;;;;;4995960;28;20038;-82
2023/01/27 13:07:23;;;;;;;20.05;10.80;;;;;;;;;;4996013;28;20069;-82
2023/01/27 13:09:53;;;;;;;22.27;11.00;;;;;;;;;;4986912;28;20111;-83
2023/01/27 13:12:21;;;;;;;18.13;9.93;;;;;;;;;;4996081;28;20050;-82
2023/01/27 13:15:04;;;;;;;14.68;7.93;;;;;;;;;;4994930;28;20060;-82
2023/01/27 13:17:52;;;;;;;11.57;7.00;;;;;;;;;;4993490;28;20042;-83
2023/01/27 13:20:22;;;;;;;17.17;8.40;;;;;;;;;;5006070;23;20061;-78
2023/01/27 13:22:56;;;;;;;13.80;7.35;;;;;;;;;;4983665;28;20049;-80
2023/01/27 13:25:29;;;;;;;14.63;8.77;;;;;;;;;;4978167;28;20047;-79
2023/01/27 13:27:58;;;;;;;16.70;7.80;;;;;;;;;;4971974;28;20059;-80
2023/01/27 13:30:32;;;;;;;10.55;7.55;;;;;;;;;;4969696;28;20050;-78
2023/01/27 13:33:23;;;;;;;17.77;8.50;;;;;;;;;;4971559;28;20536;-79
2023/01/27 13:35:57;;;;;;;9.68;7.28;;;;;;;;;;4960937;28;20166;-78
2023/01/27 13:38:30;;;;;;;12.25;7.18;;;;;;;;;;4969134;28;20478;-79
2023/01/27 13:40:58;;;;;;;24.65;21.30;;;;;;;;;;4968582;28;20082;-80
2023/01/27 13:43:28;;;;;;;16.23;7.68;;;;;;;;;;4968427;28;20051;-79
2023/01/27 13:46:06;;;;;;;10.57;6.40;;;;;;;;;;4968750;28;20046;-79
2023/01/27 13:48:40;;;;;;;12.27;6.93;;;;;;;;;;4968956;28;20070;-80
2023/01/27 13:51:09;;;;;;;14.55;8.27;;;;;;;;;;4968897;28;20066;-79
2023/01/27 13:53:37;;;;;;;27.67;24.83;;;;;;;;;;4968384;28;20051;-81
2023/01/27 13:56:20;;;;;;;8.57;5.95;;;;;;;;;;4976780;28;20059;-81
2023/01/27 13:59:06;;;;;;;16.48;7.05;;;;;;;;;;4965854;28;20109;-79
2023/01/27 14:01:53;;;;;;;11.35;6.63;;;;;;;;;;4968294;28;20464;-80
2023/01/27 14:04:23;;;;;;;15.13;6.60;;;;;;;;;;4974151;28;20114;-79
2023/01/27 14:07:02;;;;;;;13.07;6.57;;;;;;;;;;4982491;28;20049;-80
2023/01/27 14:09:41;;;;;;;14.15;10.85;;;;;;;;;;4952228;28;20047;-78
2023/01/27 14:12:08;;;;;;;9.30;6.70;;;;;;;;;;4968154;28;20420;-79
2023/01/27 14:14:39;;;;;;;16.50;6.57;;;;;;;;;;4968502;28;20061;-79
2023/01/27 14:17:35;;;;;;;16.90;7.07;;;;;;;;;;4968524;28;20047;-80
2023/01/27 14:20:20;;;;;;;9.75;6.57;;;;;;;;;;4968510;28;20053;-79
2023/01/27 14:22:57;;;;;;;16.17;7.22;;;;;;;;;;4949270;28;20118;-81
2023/01/27 14:25:28;;;;;;;14.73;6.88;;;;;;;;;;4965152;28;21229;-79
2023/01/27 14:27:58;;;;;;;11.27;6.75;;;;;;;;;;4965692;28;20113;-79
2023/01/27 14:30:28;;;;;;;13.98;7.05;;;;;;;;;;4969427;28;20500;-79
2023/01/27 14:32:58;;;;;;;17.05;7.30;;;;;;;;;;4968904;28;20078;-79
2023/01/27 14:35:32;;;;;;;15.68;7.50;;;;;;;;;;4970775;28;20055;-79
2023/01/27 14:38:02;;;;;;;13.05;8.15;;;;;;;;;;4967686;28;20055;-79
2023/01/27 14:40:32;;;;;;;10.63;6.60;;;;;;;;;;4969343;28;20050;-79
2023/01/27 14:43:09;;;;;;;15.50;8.80;;;;;;;;;;4966259;28;20057;-80
2023/01/27 14:45:36;;;;;;;9.80;6.97;;;;;;;;;;4969076;28;20043;-79
2023/01/27 14:48:03;;;;;;;11.32;7.43;;;;;;;;;;4970461;28;20129;-81
2023/01/27 14:50:49;;;;;;;12.93;7.35;;;;;;;;;;4972132;28;20093;-80
2023/01/27 14:53:30;;;;;;;13.82;8.13;;;;;;;;;;4954784;28;20058;-79
2023/01/27 14:56:02;;;;;;;14.93;7.55;;;;;;;;;;4955364;28;20563;-79
2023/01/27 14:58:30;;;;;;;16.25;7.38;;;;;;;;;;4974017;28;20054;-81
2023/01/27 15:00:57;;;;;;;13.50;7.78;;;;;;;;;;4975248;28;20059;-82
2023/01/27 15:03:31;;;;;;;13.57;9.27;;;;;;;;;;4973818;28;20059;-79
2023/01/27 15:06:05;;;;;;;12.05;7.70;;;;;;;;;;4971299;28;20049;-79
2023/01/27 15:08:45;;;;;;;12.20;7.00;;;;;;;;;;4971567;28;20073;-81
2023/01/27 15:11:15;;;;;;;12.43;8.48;;;;;;;;;;4971993;28;20046;-80
2023/01/27 15:13:57;;;;;;;9.25;7.25;;;;;;;;;;4972001;28;20054;-80
2023/01/27 15:16:44;;;;;;;9.93;6.63;;;;;;;;;;4972013;28;20093;-80
2023/01/27 15:19:36;;;;;;;15.30;8.73;;;;;;;;;;4973938;28;20563;-81
2023/01/27 15:22:04;;;;;;;;;;;;;;;;;;4957040;28;20039;-78
2023/01/27 15:24:31;;;;;;;12.45;7.28;;;;;;;;;;4980555;28;20376;-79
2023/01/27 15:26:59;;;;;;;12.30;8.73;;;;;;;;;;4982363;28;20070;-79
2023/01/27 15:29:29;;;;;;;14.23;9.45;;;;;;;;;;4978621;28;20501;-79
2023/01/27 15:32:15;;;;;;;12.02;6.63;;;;;;;;;;4979084;28;20061;-79
2023/01/27 15:34:44;;;;;;;12.13;6.57;;;;;;;;;;4979085;28;20042;-79